sensor_id;sensor_type;location;lat;lon;timestamp;P1;durP1;ratioP1;P2;durP2;ratioP2
179;SDS011;78;48.788;9.010;2023-11-21T00:00:25;17.43;;;3.27;;
179;SDS011;78;48.788;9.010;2023-11-21T00:02:51;16.63;;;3.23;;
179;SDS011;78;48.788;9.010;2023-11-21T00:05:17;16.57;;;2.70;;
179;SDS011;78;48.788;9.010;2023-11-21T00:07:43;16.17;;;3.17;;
179;SDS011;78;48.788;9.010;2023-11-21T00:10:10;16.60;;;3.23;;
179;SDS011;78;48.788;9.010;2023-11-21T00:12:36;17.23;;;3.10;;
179;SDS011;78;48.788;9.010;2023-11-21T00:15:02;17.37;;;2.90;;
179;SDS011;78;48.788;9.010;2023-11-21T00:17:34;17.30;;;2.73;;
179;SDS011;78;48.788;9.010;2023-11-21T00:20:00;16.70;;;3.10;;
179;SDS011;78;48.788;9.010;2023-11-21T00:22:26;15.47;;;3.00;;
179;SDS011;78;48.788;9.010;2023-11-21T00:24:52;16.73;;;2.80;;
179;SDS011;78;48.788;9.010;2023-11-21T00:27:18;15.90;;;3.03;;
179;SDS011;78;48.788;9.010;2023-11-21T00:29:45;14.33;;;2.60;;
179;SDS011;78;48.788;9.010;2023-11-21T00:32:11;18.80;;;2.97;;
179;SDS011;78;48.788;9.010;2023-11-21T00:34:37;18.97;;;2.87;;
179;SDS011;78;48.788;9.010;2023-11-21T00:37:03;15.90;;;3.30;;
179;SDS011;78;48.788;9.010;2023-11-21T00:39:29;15.47;;;2.80;;
179;SDS011;78;48.788;9.010;2023-11-21T00:41:55;17.07;;;3.17;;
179;SDS011;78;48.788;9.010;2023-11-21T00:44:21;21.33;;;3.50;;
179;SDS011;78;48.788;9.010;2023-11-21T00:46:47;18.30;;;3.03;;
179;SDS011;78;48.788;9.010;2023-11-21T00:49:13;14.90;;;2.70;;
179;SDS011;78;48.788;9.010;2023-11-21T00:51:39;18.57;;;3.30;;
179;SDS011;78;48.788;9.010;2023-11-21T00:54:05;18.97;;;2.80;;
179;SDS011;78;48.788;9.010;2023-11-21T00:56:31;24.03;;;3.50;;
179;SDS011;78;48.788;9.010;2023-11-21T00:58:57;17.30;;;3.00;;
179;SDS011;78;48.788;9.010;2023-11-21T01:01:23;21.53;;;3.23;;
179;SDS011;78;48.788;9.010;2023-11-21T01:03:49;18.50;;;2.73;;
179;SDS011;78;48.788;9.010;2023-11-21T01:06:16;17.07;;;2.57;;
179;SDS011;78;48.788;9.010;2023-11-21T01:08:42;15.00;;;2.90;;
179;SDS011;78;48.788;9.010;2023-11-21T01:11:08;20.30;;;2.80;;
179;SDS011;78;48.788;9.010;2023-11-21T01:13:37;16.33;;;2.80;;
179;SDS011;78;48.788;9.010;2023-11-21T01:16:03;19.33;;;3.53;;
179;SDS011;78;48.788;9.010;2023-11-21T01:18:29;14.63;;;2.30;;
179;SDS011;78;48.788;9.010;2023-11-21T01:20:55;17.33;;;2.63;;
179;SDS011;78;48.788;9.010;2023-11-21T01:23:21;15.87;;;2.80;;
179;SDS011;78;48.788;9.010;2023-11-21T01:25:47;17.53;;;3.00;;
179;SDS011;78;48.788;9.010;2023-11-21T01:28:13;16.00;;;2.43;;
179;SDS011;78;48.788;9.010;2023-11-21T01:30:39;19.63;;;2.90;;
179;SDS011;78;48.788;9.010;2023-11-21T01:33:05;16.77;;;2.67;;
179;SDS011;78;48.788;9.010;2023-11-21T01:35:31;14.60;;;2.40;;
179;SDS011;78;48.788;9.010;2023-11-21T01:37:57;15.43;;;2.50;;
179;SDS011;78;48.788;9.010;2023-11-21T01:40:23;15.63;;;2.70;;
179;SDS011;78;48.788;9.010;2023-11-21T01:42:49;27.20;;;2.90;;
179;SDS011;78;48.788;9.010;2023-11-21T01:45:15;17.13;;;2.70;;
179;SDS011;78;48.788;9.010;2023-11-21T01:47:41;16.63;;;2.90;;
179;SDS011;78;48.788;9.010;2023-11-21T01:50:08;18.17;;;2.90;;
179;SDS011;78;48.788;9.010;2023-11-21T01:52:37;19.27;;;2.53;;
179;SDS011;78;48.788;9.010;2023-11-21T01:55:04;17.53;;;2.53;;
179;SDS011;78;48.788;9.010;2023-11-21T01:57:33;19.57;;;2.90;;
179;SDS011;78;48.788;9.010;2023-11-21T01:59:59;18.60;;;3.13;;
179;SDS011;78;48.788;9.010;2023-11-21T02:02:40;15.40;;;2.77;;
179;SDS011;78;48.788;9.010;2023-11-21T02:05:06;17.33;;;3.13;;
179;SDS011;78;48.788;9.010;2023-11-21T02:07:33;15.50;;;2.73;;
179;SDS011;78;48.788;9.010;2023-11-21T02:10:00;16.23;;;2.83;;
179;SDS011;78;48.788;9.010;2023-11-21T02:12:26;18.40;;;3.00;;
179;SDS011;78;48.788;9.010;2023-11-21T02:14:52;17.57;;;2.70;;
179;SDS011;78;48.788;9.010;2023-11-21T02:17:18;19.30;;;3.23;;
179;SDS011;78;48.788;9.010;2023-11-21T02:19:45;17.00;;;2.90;;
179;SDS011;78;48.788;9.010;2023-11-21T02:22:12;16.87;;;2.83;;
179;SDS011;78;48.788;9.010;2023-11-21T02:24:40;17.90;;;3.03;;
179;SDS011;78;48.788;9.010;2023-11-21T02:27:07;19.40;;;3.20;;
179;SDS011;78;48.788;9.010;2023-11-21T02:29:33;18.70;;;3.50;;
179;SDS011;78;48.788;9.010;2023-11-21T02:31:59;18.93;;;3.50;;
179;SDS011;78;48.788;9.010;2023-11-21T02:34:25;19.47;;;3.20;;
179;SDS011;78;48.788;9.010;2023-11-21T02:36:51;15.33;;;2.70;;
179;SDS011;78;48.788;9.010;2023-11-21T02:39:17;17.40;;;3.17;;
179;SDS011;78;48.788;9.010;2023-11-21T02:41:46;19.73;;;3.00;;
179;SDS011;78;48.788;9.010;2023-11-21T02:44:12;14.83;;;2.80;;
179;SDS011;78;48.788;9.010;2023-11-21T02:46:38;18.20;;;3.00;;
179;SDS011;78;48.788;9.010;2023-11-21T02:49:05;16.00;;;2.83;;
179;SDS011;78;48.788;9.010;2023-11-21T02:51:32;17.80;;;2.90;;
179;SDS011;78;48.788;9.010;2023-11-21T02:53:58;17.43;;;2.93;;
179;SDS011;78;48.788;9.010;2023-11-21T02:56:26;16.40;;;2.90;;
179;SDS011;78;48.788;9.010;2023-11-21T02:58:52;21.33;;;2.90;;
179;SDS011;78;48.788;9.010;2023-11-21T03:01:18;17.90;;;2.60;;
179;SDS011;78;48.788;9.010;2023-11-21T03:03:44;17.63;;;3.10;;
179;SDS011;78;48.788;9.010;2023-11-21T03:06:10;15.87;;;2.77;;
179;SDS011;78;48.788;9.010;2023-11-21T03:08:36;17.10;;;3.03;;
179;SDS011;78;48.788;9.010;2023-11-21T03:11:02;15.97;;;2.70;;
179;SDS011;78;48.788;9.010;2023-11-21T03:13:28;14.57;;;2.57;;
179;SDS011;78;48.788;9.010;2023-11-21T03:15:54;15.77;;;2.50;;
179;SDS011;78;48.788;9.010;2023-11-21T03:18:20;16.30;;;2.80;;
179;SDS011;78;48.788;9.010;2023-11-21T03:20:51;17.83;;;2.97;;
179;SDS011;78;48.788;9.010;2023-11-21T03:23:17;18.47;;;2.80;;
179;SDS011;78;48.788;9.010;2023-11-21T03:25:43;18.23;;;2.90;;
179;SDS011;78;48.788;9.010;2023-11-21T03:28:09;14.87;;;2.30;;
179;SDS011;78;48.788;9.010;2023-11-21T03:30:35;15.70;;;2.30;;
179;SDS011;78;48.788;9.010;2023-11-21T03:33:01;15.30;;;2.50;;
179;SDS011;78;48.788;9.010;2023-11-21T03:35:27;16.37;;;2.60;;
179;SDS011;78;48.788;9.010;2023-11-21T03:37:53;14.50;;;2.50;;
179;SDS011;78;48.788;9.010;2023-11-21T03:40:19;17.27;;;2.30;;
179;SDS011;78;48.788;9.010;2023-11-21T03:42:46;19.03;;;2.63;;
179;SDS011;78;48.788;9.010;2023-11-21T03:45:12;14.80;;;2.40;;
179;SDS011;78;48.788;9.010;2023-11-21T03:47:40;16.77;;;2.70;;
179;SDS011;78;48.788;9.010;2023-11-21T03:50:06;18.80;;;2.70;;
179;SDS011;78;48.788;9.010;2023-11-21T03:52:33;16.50;;;2.90;;
179;SDS011;78;48.788;9.010;2023-11-21T03:55:00;15.30;;;2.40;;
179;SDS011;78;48.788;9.010;2023-11-21T03:57:26;16.57;;;2.47;;
179;SDS011;78;48.788;9.010;2023-11-21T03:59:52;15.10;;;2.63;;
179;SDS011;78;48.788;9.010;2023-11-21T04:02:18;14.50;;;2.30;;
179;SDS011;78;48.788;9.010;2023-11-21T04:04:45;17.17;;;2.40;;
179;SDS011;78;48.788;9.010;2023-11-21T04:07:11;15.40;;;2.40;;
179;SDS011;78;48.788;9.010;2023-11-21T04:09:38;14.80;;;2.10;;
179;SDS011;78;48.788;9.010;2023-11-21T04:12:04;16.00;;;2.53;;
179;SDS011;78;48.788;9.010;2023-11-21T04:14:30;13.23;;;2.07;;
179;SDS011;78;48.788;9.010;2023-11-21T04:16:56;16.03;;;2.60;;
179;SDS011;78;48.788;9.010;2023-11-21T04:19:22;22.40;;;2.33;;
179;SDS011;78;48.788;9.010;2023-11-21T04:21:48;13.93;;;2.47;;
179;SDS011;78;48.788;9.010;2023-11-21T04:24:14;15.60;;;2.20;;
179;SDS011;78;48.788;9.010;2023-11-21T04:26:40;18.87;;;2.57;;
179;SDS011;78;48.788;9.010;2023-11-21T04:29:06;16.30;;;2.70;;
179;SDS011;78;48.788;9.010;2023-11-21T04:31:32;14.90;;;2.50;;
179;SDS011;78;48.788;9.010;2023-11-21T04:33:58;15.33;;;2.40;;
179;SDS011;78;48.788;9.010;2023-11-21T04:36:24;16.70;;;3.00;;
179;SDS011;78;48.788;9.010;2023-11-21T04:38:50;14.60;;;2.43;;
179;SDS011;78;48.788;9.010;2023-11-21T04:41:16;14.57;;;2.67;;
179;SDS011;78;48.788;9.010;2023-11-21T04:43:43;18.30;;;2.63;;
179;SDS011;78;48.788;9.010;2023-11-21T04:46:09;15.20;;;2.40;;
179;SDS011;78;48.788;9.010;2023-11-21T04:48:35;13.73;;;2.23;;
179;SDS011;78;48.788;9.010;2023-11-21T04:51:01;17.40;;;2.43;;
179;SDS011;78;48.788;9.010;2023-11-21T04:53:27;13.50;;;2.33;;
179;SDS011;78;48.788;9.010;2023-11-21T04:55:52;14.83;;;2.20;;
179;SDS011;78;48.788;9.010;2023-11-21T04:58:18;15.20;;;2.43;;
179;SDS011;78;48.788;9.010;2023-11-21T05:00:45;14.87;;;2.33;;
179;SDS011;78;48.788;9.010;2023-11-21T05:03:11;15.13;;;2.40;;
179;SDS011;78;48.788;9.010;2023-11-21T05:05:37;15.07;;;2.50;;
179;SDS011;78;48.788;9.010;2023-11-21T05:08:03;13.83;;;2.20;;
179;SDS011;78;48.788;9.010;2023-11-21T05:10:30;14.97;;;2.10;;
179;SDS011;78;48.788;9.010;2023-11-21T05:12:56;14.70;;;2.77;;
179;SDS011;78;48.788;9.010;2023-11-21T05:15:23;14.40;;;2.30;;
179;SDS011;78;48.788;9.010;2023-11-21T05:17:49;14.80;;;2.47;;
179;SDS011;78;48.788;9.010;2023-11-21T05:20:17;15.10;;;2.20;;
179;SDS011;78;48.788;9.010;2023-11-21T05:22:46;15.17;;;2.80;;
179;SDS011;78;48.788;9.010;2023-11-21T05:25:13;13.77;;;2.40;;
179;SDS011;78;48.788;9.010;2023-11-21T05:27:39;15.47;;;2.87;;
179;SDS011;78;48.788;9.010;2023-11-21T05:30:05;15.70;;;2.90;;
179;SDS011;78;48.788;9.010;2023-11-21T05:32:34;15.53;;;3.00;;
179;SDS011;78;48.788;9.010;2023-11-21T05:35:00;16.33;;;2.90;;
179;SDS011;78;48.788;9.010;2023-11-21T05:37:26;15.40;;;3.07;;
179;SDS011;78;48.788;9.010;2023-11-21T05:39:52;14.37;;;2.50;;
179;SDS011;78;48.788;9.010;2023-11-21T05:42:21;15.83;;;2.40;;
179;SDS011;78;48.788;9.010;2023-11-21T05:44:48;16.90;;;2.27;;
179;SDS011;78;48.788;9.010;2023-11-21T05:47:14;16.07;;;2.60;;
179;SDS011;78;48.788;9.010;2023-11-21T05:49:40;15.00;;;2.43;;
179;SDS011;78;48.788;9.010;2023-11-21T05:52:07;17.23;;;2.80;;
179;SDS011;78;48.788;9.010;2023-11-21T05:54:33;14.87;;;2.60;;
179;SDS011;78;48.788;9.010;2023-11-21T05:56:59;13.50;;;2.27;;
179;SDS011;78;48.788;9.010;2023-11-21T05:59:25;15.43;;;2.70;;
179;SDS011;78;48.788;9.010;2023-11-21T06:01:51;16.40;;;2.90;;
179;SDS011;78;48.788;9.010;2023-11-21T06:04:18;16.07;;;3.40;;
179;SDS011;78;48.788;9.010;2023-11-21T06:06:48;16.97;;;4.00;;
179;SDS011;78;48.788;9.010;2023-11-21T06:09:14;19.17;;;3.93;;
179;SDS011;78;48.788;9.010;2023-11-21T06:11:40;15.37;;;3.30;;
179;SDS011;78;48.788;9.010;2023-11-21T06:14:06;16.77;;;3.40;;
179;SDS011;78;48.788;9.010;2023-11-21T06:16:34;16.40;;;3.50;;
179;SDS011;78;48.788;9.010;2023-11-21T06:19:00;15.37;;;3.30;;
179;SDS011;78;48.788;9.010;2023-11-21T06:21:26;17.10;;;3.43;;
179;SDS011;78;48.788;9.010;2023-11-21T06:23:52;16.20;;;3.20;;
179;SDS011;78;48.788;9.010;2023-11-21T06:26:18;17.00;;;3.90;;
179;SDS011;78;48.788;9.010;2023-11-21T06:28:45;17.20;;;3.90;;
179;SDS011;78;48.788;9.010;2023-11-21T06:31:11;20.80;;;3.53;;
179;SDS011;78;48.788;9.010;2023-11-21T06:33:37;18.63;;;3.53;;
179;SDS011;78;48.788;9.010;2023-11-21T06:36:03;16.80;;;3.10;;
179;SDS011;78;48.788;9.010;2023-11-21T06:38:29;16.20;;;3.00;;
179;SDS011;78;48.788;9.010;2023-11-21T06:40:57;16.10;;;3.03;;
179;SDS011;78;48.788;9.010;2023-11-21T06:43:23;16.97;;;3.43;;
179;SDS011;78;48.788;9.010;2023-11-21T06:45:49;15.60;;;3.30;;
179;SDS011;78;48.788;9.010;2023-11-21T06:48:15;15.87;;;3.30;;
179;SDS011;78;48.788;9.010;2023-11-21T06:50:41;16.60;;;3.37;;
179;SDS011;78;48.788;9.010;2023-11-21T06:53:07;16.57;;;3.50;;
179;SDS011;78;48.788;9.010;2023-11-21T06:55:34;16.07;;;3.30;;
179;SDS011;78;48.788;9.010;2023-11-21T06:58:00;15.83;;;3.33;;
179;SDS011;78;48.788;9.010;2023-11-21T07:00:26;15.70;;;3.27;;
179;SDS011;78;48.788;9.010;2023-11-21T07:02:53;18.50;;;3.27;;
179;SDS011;78;48.788;9.010;2023-11-21T07:05:20;15.30;;;3.10;;
179;SDS011;78;48.788;9.010;2023-11-21T07:07:46;17.30;;;3.30;;
179;SDS011;78;48.788;9.010;2023-11-21T07:10:13;17.13;;;3.53;;
179;SDS011;78;48.788;9.010;2023-11-21T07:12:39;17.03;;;3.20;;
179;SDS011;78;48.788;9.010;2023-11-21T07:15:05;14.70;;;2.80;;
179;SDS011;78;48.788;9.010;2023-11-21T07:17:37;14.90;;;3.17;;
179;SDS011;78;48.788;9.010;2023-11-21T07:20:05;14.80;;;2.80;;
179;SDS011;78;48.788;9.010;2023-11-21T07:22:31;17.63;;;3.37;;
179;SDS011;78;48.788;9.010;2023-11-21T07:24:57;15.50;;;3.10;;
179;SDS011;78;48.788;9.010;2023-11-21T07:27:23;14.10;;;2.80;;
179;SDS011;78;48.788;9.010;2023-11-21T07:29:49;18.03;;;3.43;;
179;SDS011;78;48.788;9.010;2023-11-21T07:32:15;16.90;;;3.40;;
179;SDS011;78;48.788;9.010;2023-11-21T07:34:41;17.90;;;3.70;;
179;SDS011;78;48.788;9.010;2023-11-21T07:37:07;16.33;;;3.40;;
179;SDS011;78;48.788;9.010;2023-11-21T07:39:34;14.90;;;3.00;;
179;SDS011;78;48.788;9.010;2023-11-21T07:42:01;15.40;;;3.30;;
179;SDS011;78;48.788;9.010;2023-11-21T07:44:27;16.13;;;3.20;;
179;SDS011;78;48.788;9.010;2023-11-21T07:46:54;15.10;;;3.07;;
179;SDS011;78;48.788;9.010;2023-11-21T07:49:22;14.27;;;2.80;;
179;SDS011;78;48.788;9.010;2023-11-21T07:51:48;14.40;;;2.80;;
179;SDS011;78;48.788;9.010;2023-11-21T07:54:14;16.40;;;3.50;;
179;SDS011;78;48.788;9.010;2023-11-21T07:56:40;16.20;;;3.50;;
179;SDS011;78;48.788;9.010;2023-11-21T07:59:07;16.07;;;2.90;;
179;SDS011;78;48.788;9.010;2023-11-21T08:01:33;16.27;;;3.27;;
179;SDS011;78;48.788;9.010;2023-11-21T08:03:59;18.40;;;3.07;;
179;SDS011;78;48.788;9.010;2023-11-21T08:06:29;14.93;;;3.17;;
179;SDS011;78;48.788;9.010;2023-11-21T08:08:56;16.03;;;3.10;;
179;SDS011;78;48.788;9.010;2023-11-21T08:11:22;17.17;;;3.20;;
179;SDS011;78;48.788;9.010;2023-11-21T08:13:48;17.27;;;2.90;;
179;SDS011;78;48.788;9.010;2023-11-21T08:16:14;13.90;;;2.50;;
179;SDS011;78;48.788;9.010;2023-11-21T08:18:41;15.20;;;3.20;;
179;SDS011;78;48.788;9.010;2023-11-21T08:21:07;15.90;;;2.80;;
179;SDS011;78;48.788;9.010;2023-11-21T08:23:34;15.27;;;2.90;;
179;SDS011;78;48.788;9.010;2023-11-21T08:25:59;17.17;;;3.27;;
179;SDS011;78;48.788;9.010;2023-11-21T08:28:28;17.27;;;3.03;;
179;SDS011;78;48.788;9.010;2023-11-21T08:30:54;15.20;;;3.10;;
179;SDS011;78;48.788;9.010;2023-11-21T08:33:20;15.33;;;3.20;;
179;SDS011;78;48.788;9.010;2023-11-21T08:35:46;17.33;;;3.40;;
179;SDS011;78;48.788;9.010;2023-11-21T08:38:12;15.60;;;3.20;;
179;SDS011;78;48.788;9.010;2023-11-21T08:40:38;15.80;;;3.13;;
179;SDS011;78;48.788;9.010;2023-11-21T08:43:04;16.47;;;3.30;;
179;SDS011;78;48.788;9.010;2023-11-21T08:45:31;16.00;;;3.27;;
179;SDS011;78;48.788;9.010;2023-11-21T08:47:59;16.00;;;3.90;;
179;SDS011;78;48.788;9.010;2023-11-21T08:50:25;16.40;;;3.47;;
179;SDS011;78;48.788;9.010;2023-11-21T08:52:51;15.20;;;3.20;;
179;SDS011;78;48.788;9.010;2023-11-21T08:55:17;17.77;;;3.50;;
179;SDS011;78;48.788;9.010;2023-11-21T08:57:45;17.70;;;3.40;;
179;SDS011;78;48.788;9.010;2023-11-21T09:00:14;15.83;;;2.90;;
179;SDS011;78;48.788;9.010;2023-11-21T09:02:42;15.80;;;2.97;;
179;SDS011;78;48.788;9.010;2023-11-21T09:05:08;14.93;;;2.77;;
179;SDS011;78;48.788;9.010;2023-11-21T09:07:35;15.20;;;3.03;;
179;SDS011;78;48.788;9.010;2023-11-21T09:10:01;15.47;;;2.80;;
179;SDS011;78;48.788;9.010;2023-11-21T09:12:27;17.00;;;3.37;;
179;SDS011;78;48.788;9.010;2023-11-21T09:14:53;16.10;;;2.90;;
179;SDS011;78;48.788;9.010;2023-11-21T09:17:19;15.57;;;3.20;;
179;SDS011;78;48.788;9.010;2023-11-21T09:19:45;15.60;;;2.73;;
179;SDS011;78;48.788;9.010;2023-11-21T09:22:16;15.00;;;2.90;;
179;SDS011;78;48.788;9.010;2023-11-21T09:24:42;18.20;;;3.30;;
179;SDS011;78;48.788;9.010;2023-11-21T09:27:08;16.20;;;3.07;;
179;SDS011;78;48.788;9.010;2023-11-21T09:29:34;16.80;;;3.33;;
179;SDS011;78;48.788;9.010;2023-11-21T09:32:03;15.17;;;3.00;;
179;SDS011;78;48.788;9.010;2023-11-21T09:34:31;16.77;;;3.07;;
179;SDS011;78;48.788;9.010;2023-11-21T09:36:57;14.27;;;2.77;;
179;SDS011;78;48.788;9.010;2023-11-21T09:39:23;14.03;;;2.60;;
179;SDS011;78;48.788;9.010;2023-11-21T09:41:52;14.70;;;2.60;;
179;SDS011;78;48.788;9.010;2023-11-21T09:44:39;15.40;;;2.87;;
179;SDS011;78;48.788;9.010;2023-11-21T09:47:09;15.30;;;2.93;;
179;SDS011;78;48.788;9.010;2023-11-21T09:49:36;18.10;;;2.97;;
179;SDS011;78;48.788;9.010;2023-11-21T09:52:03;19.80;;;4.73;;
179;SDS011;78;48.788;9.010;2023-11-21T09:54:30;20.23;;;5.40;;
179;SDS011;78;48.788;9.010;2023-11-21T09:56:57;19.03;;;4.27;;
179;SDS011;78;48.788;9.010;2023-11-21T09:59:23;16.87;;;4.07;;
179;SDS011;78;48.788;9.010;2023-11-21T10:01:49;16.00;;;3.50;;
179;SDS011;78;48.788;9.010;2023-11-21T10:04:15;16.13;;;3.70;;
179;SDS011;78;48.788;9.010;2023-11-21T10:06:42;15.60;;;3.90;;
179;SDS011;78;48.788;9.010;2023-11-21T10:09:12;16.90;;;4.03;;
179;SDS011;78;48.788;9.010;2023-11-21T10:11:40;16.80;;;3.97;;
179;SDS011;78;48.788;9.010;2023-11-21T10:14:10;15.50;;;3.47;;
179;SDS011;78;48.788;9.010;2023-11-21T10:16:37;15.27;;;3.50;;
179;SDS011;78;48.788;9.010;2023-11-21T10:19:04;16.93;;;3.50;;
179;SDS011;78;48.788;9.010;2023-11-21T10:21:32;15.70;;;3.70;;
179;SDS011;78;48.788;9.010;2023-11-21T10:23:58;15.70;;;3.90;;
179;SDS011;78;48.788;9.010;2023-11-21T10:26:25;16.00;;;3.50;;
179;SDS011;78;48.788;9.010;2023-11-21T10:28:55;15.83;;;3.50;;
179;SDS011;78;48.788;9.010;2023-11-21T10:31:22;17.57;;;3.50;;
179;SDS011;78;48.788;9.010;2023-11-21T10:33:49;16.03;;;3.40;;
179;SDS011;78;48.788;9.010;2023-11-21T10:36:29;15.40;;;3.67;;
179;SDS011;78;48.788;9.010;2023-11-21T10:38:55;16.93;;;3.50;;
179;SDS011;78;48.788;9.010;2023-11-21T10:41:22;25.23;;;3.53;;
179;SDS011;78;48.788;9.010;2023-11-21T10:43:48;16.97;;;4.03;;
179;SDS011;78;48.788;9.010;2023-11-21T10:46:14;20.30;;;3.90;;
179;SDS011;78;48.788;9.010;2023-11-21T10:48:41;17.00;;;3.40;;
179;SDS011;78;48.788;9.010;2023-11-21T10:51:08;16.90;;;3.77;;
179;SDS011;78;48.788;9.010;2023-11-21T10:53:37;16.93;;;4.03;;
179;SDS011;78;48.788;9.010;2023-11-21T10:56:08;18.40;;;4.20;;
179;SDS011;78;48.788;9.010;2023-11-21T10:58:42;15.23;;;3.70;;
179;SDS011;78;48.788;9.010;2023-11-21T11:01:08;17.50;;;3.90;;
179;SDS011;78;48.788;9.010;2023-11-21T11:03:39;17.97;;;3.80;;
179;SDS011;78;48.788;9.010;2023-11-21T11:06:05;15.20;;;3.37;;
179;SDS011;78;48.788;9.010;2023-11-21T11:08:36;17.77;;;4.13;;
179;SDS011;78;48.788;9.010;2023-11-21T11:11:04;16.83;;;4.20;;
179;SDS011;78;48.788;9.010;2023-11-21T11:13:31;20.23;;;4.90;;
179;SDS011;78;48.788;9.010;2023-11-21T11:16:00;22.40;;;5.70;;
179;SDS011;78;48.788;9.010;2023-11-21T11:18:27;19.80;;;5.67;;
179;SDS011;78;48.788;9.010;2023-11-21T11:20:54;22.97;;;5.70;;
179;SDS011;78;48.788;9.010;2023-11-21T11:36:37;19.20;;;5.40;;
179;SDS011;78;48.788;9.010;2023-11-21T11:41:52;16.80;;;4.03;;
179;SDS011;78;48.788;9.010;2023-11-21T11:47:03;16.20;;;4.03;;
179;SDS011;78;48.788;9.010;2023-11-21T11:49:38;15.73;;;3.73;;
179;SDS011;78;48.788;9.010;2023-11-21T11:54:59;17.57;;;5.10;;
179;SDS011;78;48.788;9.010;2023-11-21T11:57:26;18.83;;;5.60;;
179;SDS011;78;48.788;9.010;2023-11-21T12:02:45;19.93;;;5.10;;
179;SDS011;78;48.788;9.010;2023-11-21T12:05:13;17.73;;;4.97;;
179;SDS011;78;48.788;9.010;2023-11-21T12:07:46;17.03;;;4.40;;
179;SDS011;78;48.788;9.010;2023-11-21T12:10:13;16.20;;;4.40;;
179;SDS011;78;48.788;9.010;2023-11-21T12:12:42;17.30;;;4.70;;
179;SDS011;78;48.788;9.010;2023-11-21T12:15:09;17.60;;;5.10;;
179;SDS011;78;48.788;9.010;2023-11-21T12:17:37;17.20;;;5.13;;
179;SDS011;78;48.788;9.010;2023-11-21T12:20:04;17.93;;;5.47;;
179;SDS011;78;48.788;9.010;2023-11-21T12:22:31;17.60;;;5.30;;
179;SDS011;78;48.788;9.010;2023-11-21T12:24:57;19.43;;;5.47;;
179;SDS011;78;48.788;9.010;2023-11-21T12:27:23;19.77;;;5.87;;
179;SDS011;78;48.788;9.010;2023-11-21T12:29:50;19.47;;;6.47;;
179;SDS011;78;48.788;9.010;2023-11-21T12:32:16;18.00;;;5.70;;
179;SDS011;78;48.788;9.010;2023-11-21T12:34:43;19.10;;;5.90;;
179;SDS011;78;48.788;9.010;2023-11-21T12:37:09;20.10;;;6.70;;
179;SDS011;78;48.788;9.010;2023-11-21T12:39:35;22.07;;;7.53;;
179;SDS011;78;48.788;9.010;2023-11-21T12:42:01;21.20;;;7.27;;
179;SDS011;78;48.788;9.010;2023-11-21T12:44:27;19.90;;;6.57;;
179;SDS011;78;48.788;9.010;2023-11-21T12:46:54;20.60;;;6.90;;
179;SDS011;78;48.788;9.010;2023-11-21T12:49:20;19.60;;;6.67;;
179;SDS011;78;48.788;9.010;2023-11-21T12:51:47;20.80;;;7.43;;
179;SDS011;78;48.788;9.010;2023-11-21T12:54:13;21.63;;;7.90;;
179;SDS011;78;48.788;9.010;2023-11-21T12:56:40;20.30;;;6.33;;
179;SDS011;78;48.788;9.010;2023-11-21T12:59:06;19.30;;;6.20;;
179;SDS011;78;48.788;9.010;2023-11-21T13:01:36;19.70;;;6.30;;
179;SDS011;78;48.788;9.010;2023-11-21T13:04:02;20.00;;;6.50;;
179;SDS011;78;48.788;9.010;2023-11-21T13:06:29;20.63;;;6.80;;
179;SDS011;78;48.788;9.010;2023-11-21T13:09:03;23.00;;;7.40;;
179;SDS011;78;48.788;9.010;2023-11-21T13:11:30;23.73;;;7.70;;
179;SDS011;78;48.788;9.010;2023-11-21T13:13:59;22.20;;;7.23;;
179;SDS011;78;48.788;9.010;2023-11-21T13:16:25;22.60;;;7.23;;
179;SDS011;78;48.788;9.010;2023-11-21T13:18:52;17.90;;;5.23;;
179;SDS011;78;48.788;9.010;2023-11-21T13:21:18;18.10;;;4.43;;
179;SDS011;78;48.788;9.010;2023-11-21T13:23:47;17.63;;;3.83;;
179;SDS011;78;48.788;9.010;2023-11-21T13:26:15;16.63;;;3.50;;
179;SDS011;78;48.788;9.010;2023-11-21T13:28:42;15.80;;;3.67;;
179;SDS011;78;48.788;9.010;2023-11-21T13:31:11;15.00;;;3.23;;
179;SDS011;78;48.788;9.010;2023-11-21T13:33:50;15.83;;;3.80;;
179;SDS011;78;48.788;9.010;2023-11-21T13:36:21;18.13;;;4.47;;
179;SDS011;78;48.788;9.010;2023-11-21T13:38:49;16.73;;;4.30;;
179;SDS011;78;48.788;9.010;2023-11-21T13:41:15;15.90;;;3.63;;
179;SDS011;78;48.788;9.010;2023-11-21T13:43:42;15.20;;;3.23;;
179;SDS011;78;48.788;9.010;2023-11-21T13:46:12;18.07;;;3.87;;
179;SDS011;78;48.788;9.010;2023-11-21T13:48:42;17.20;;;3.70;;
179;SDS011;78;48.788;9.010;2023-11-21T13:51:13;15.80;;;4.03;;
179;SDS011;78;48.788;9.010;2023-11-21T13:53:43;16.37;;;4.20;;
179;SDS011;78;48.788;9.010;2023-11-21T13:56:12;17.63;;;4.90;;
179;SDS011;78;48.788;9.010;2023-11-21T13:58:43;19.60;;;5.77;;
179;SDS011;78;48.788;9.010;2023-11-21T14:01:23;18.20;;;5.30;;
179;SDS011;78;48.788;9.010;2023-11-21T14:04:04;18.33;;;4.70;;
179;SDS011;78;48.788;9.010;2023-11-21T14:06:47;17.30;;;4.20;;
179;SDS011;78;48.788;9.010;2023-11-21T14:09:17;17.27;;;4.70;;
179;SDS011;78;48.788;9.010;2023-11-21T14:11:56;21.90;;;6.70;;
179;SDS011;78;48.788;9.010;2023-11-21T14:14:26;19.87;;;5.87;;
179;SDS011;78;48.788;9.010;2023-11-21T14:16:53;22.20;;;7.07;;
179;SDS011;78;48.788;9.010;2023-11-21T14:19:23;22.63;;;6.90;;
179;SDS011;78;48.788;9.010;2023-11-21T14:21:56;16.20;;;4.00;;
179;SDS011;78;48.788;9.010;2023-11-21T14:24:22;17.43;;;4.27;;
179;SDS011;78;48.788;9.010;2023-11-21T14:26:49;16.67;;;4.37;;
179;SDS011;78;48.788;9.010;2023-11-21T14:29:16;18.07;;;4.30;;
179;SDS011;78;48.788;9.010;2023-11-21T14:31:45;17.90;;;4.43;;
179;SDS011;78;48.788;9.010;2023-11-21T14:34:10;18.03;;;4.80;;
179;SDS011;78;48.788;9.010;2023-11-21T14:36:38;21.60;;;6.10;;
179;SDS011;78;48.788;9.010;2023-11-21T14:39:05;23.27;;;6.87;;
179;SDS011;78;48.788;9.010;2023-11-21T14:41:57;18.77;;;5.07;;
179;SDS011;78;48.788;9.010;2023-11-21T14:44:24;19.20;;;4.73;;
179;SDS011;78;48.788;9.010;2023-11-21T14:46:53;19.77;;;5.70;;
179;SDS011;78;48.788;9.010;2023-11-21T14:49:20;19.93;;;5.77;;
179;SDS011;78;48.788;9.010;2023-11-21T14:51:48;19.13;;;4.87;;
179;SDS011;78;48.788;9.010;2023-11-21T14:54:25;16.53;;;4.13;;
179;SDS011;78;48.788;9.010;2023-11-21T14:57:05;18.63;;;4.17;;
179;SDS011;78;48.788;9.010;2023-11-21T14:59:36;15.40;;;3.70;;
179;SDS011;78;48.788;9.010;2023-11-21T15:02:02;15.73;;;3.73;;
179;SDS011;78;48.788;9.010;2023-11-21T15:04:42;16.07;;;3.57;;
179;SDS011;78;48.788;9.010;2023-11-21T15:07:08;17.90;;;4.90;;
179;SDS011;78;48.788;9.010;2023-11-21T15:09:36;17.47;;;5.00;;
179;SDS011;78;48.788;9.010;2023-11-21T15:12:07;16.67;;;4.17;;
179;SDS011;78;48.788;9.010;2023-11-21T15:14:43;24.80;;;7.50;;
179;SDS011;78;48.788;9.010;2023-11-21T15:17:10;18.90;;;5.40;;
179;SDS011;78;48.788;9.010;2023-11-21T15:19:38;22.17;;;7.27;;
179;SDS011;78;48.788;9.010;2023-11-21T15:22:04;19.63;;;6.53;;
179;SDS011;78;48.788;9.010;2023-11-21T15:24:32;19.37;;;6.10;;
179;SDS011;78;48.788;9.010;2023-11-21T15:26:58;20.33;;;5.70;;
179;SDS011;78;48.788;9.010;2023-11-21T15:29:24;18.97;;;5.77;;
179;SDS011;78;48.788;9.010;2023-11-21T15:31:51;20.00;;;6.40;;
179;SDS011;78;48.788;9.010;2023-11-21T15:34:21;18.80;;;5.87;;
179;SDS011;78;48.788;9.010;2023-11-21T15:36:47;19.80;;;6.40;;
179;SDS011;78;48.788;9.010;2023-11-21T15:39:17;24.50;;;7.60;;
179;SDS011;78;48.788;9.010;2023-11-21T15:41:43;21.00;;;6.90;;
179;SDS011;78;48.788;9.010;2023-11-21T15:44:09;22.40;;;7.17;;
179;SDS011;78;48.788;9.010;2023-11-21T15:46:36;20.63;;;7.43;;
179;SDS011;78;48.788;9.010;2023-11-21T15:49:04;26.90;;;8.80;;
179;SDS011;78;48.788;9.010;2023-11-21T15:51:37;29.87;;;10.70;;
179;SDS011;78;48.788;9.010;2023-11-21T15:54:03;28.13;;;8.67;;
179;SDS011;78;48.788;9.010;2023-11-21T15:56:29;24.53;;;8.23;;
179;SDS011;78;48.788;9.010;2023-11-21T15:58:55;21.30;;;7.40;;
179;SDS011;78;48.788;9.010;2023-11-21T16:01:21;24.07;;;8.37;;
179;SDS011;78;48.788;9.010;2023-11-21T16:03:47;23.93;;;8.30;;
179;SDS011;78;48.788;9.010;2023-11-21T16:06:13;24.20;;;7.77;;
179;SDS011;78;48.788;9.010;2023-11-21T16:08:40;23.80;;;7.70;;